Time;durP1;ratioP1;P1;durP2;ratioP2;P2;SDS_P1;SDS_P2;PMS_P1;PMS_P2;Temp;Humidity;BMP_temperature;BMP_pressure;BME280_temperature;BME280_humidity;BME280_pressure;Samples;Min_cycle;Max_cycle;Signal;HPM_P1;HPM_P2
2022/07/31 00:01:48;;;;;;;2.70;2.50;;;;;;;25.98;67.99;99094.59;5051056;28;20262;-73
2022/07/31 00:04:15;;;;;;;2.43;2.33;;;;;;;25.84;69.44;99096.53;5051242;28;20195;-73
2022/07/31 00:06:43;;;;;;;2.67;2.50;;;;;;;25.83;70.31;99098.44;5051168;28;20250;-73
2022/07/31 00:09:11;;;;;;;2.57;2.47;;;;;;;26.07;69.24;99111.81;5051491;28;20219;-72
2022/07/31 00:11:38;;;;;;;2.67;2.47;;;;;;;26.32;67.80;99130.31;5051224;28;20200;-73
2022/07/31 00:14:04;;;;;;;2.93;2.83;;;;;;;26.33;68.99;99129.22;5051546;28;20224;-74
2022/07/31 00:16:31;;;;;;;3.30;3.03;;;;;;;26.29;69.50;99129.00;5050739;28;20618;-74
2022/07/31 00:18:58;;;;;;;3.63;3.47;;;;;;;26.43;68.04;99137.16;5051875;28;20200;-73
2022/07/31 00:21:25;;;;;;;2.60;2.40;;;;;;;26.50;68.42;99145.72;5051320;28;20741;-75
2022/07/31 00:23:52;;;;;;;3.13;2.77;;;;;;;26.48;70.91;99126.94;5052334;28;20330;-73
2022/07/31 00:26:20;;;;;;;3.10;2.90;;;;;;;26.55;69.46;99143.69;5051737;28;20208;-73
2022/07/31 00:28:47;;;;;;;2.80;2.70;;;;;;;26.47;71.34;99151.75;5051506;28;20196;-73
2022/07/31 00:31:14;;;;;;;2.93;2.80;;;;;;;26.31;72.24;99148.59;5051665;28;20228;-72
2022/07/31 00:33:41;;;;;;;3.00;2.90;;;;;;;26.16;72.63;99138.03;5051408;28;20628;-72
2022/07/31 00:36:08;;;;;;;3.87;3.50;;;;;;;25.75;74.77;99134.53;5051189;28;20651;-73
2022/07/31 00:38:35;;;;;;;3.50;3.40;;;;;;;25.34;77.61;99141.03;5050653;28;20197;-74
2022/07/31 00:41:02;;;;;;;3.43;3.23;;;;;;;25.33;77.58;99144.88;5050541;28;20227;-73
2022/07/31 00:43:31;;;;;;;3.10;3.00;;;;;;;25.21;80.18;99123.59;5050789;28;20246;-73
2022/07/31 00:45:58;;;;;;;3.43;3.33;;;;;;;25.26;78.77;99122.66;5051522;28;20246;-73
2022/07/31 00:48:24;;;;;;;4.00;3.70;;;;;;;25.08;79.60;99136.03;5050913;28;20239;-73
2022/07/31 00:50:51;;;;;;;3.47;3.17;;;;;;;25.05;80.27;99135.84;5052984;28;20273;-75
2022/07/31 00:53:18;;;;;;;3.90;3.47;;;;;;;25.14;78.83;99130.53;5054308;28;20232;-75
2022/07/31 00:55:45;;;;;;;3.77;3.57;;;;;;;25.16;78.58;99131.03;5054978;28;20261;-74
2022/07/31 00:58:11;;;;;;;3.50;3.30;;;;;;;25.06;78.31;99136.66;5054755;28;20710;-73
2022/07/31 01:00:39;;;;;;;4.67;4.37;;;;;;;24.74;82.11;99135.53;5054730;28;20196;-73
2022/07/31 01:03:06;;;;;;;4.03;3.73;;;;;;;24.61;82.08;99135.47;5054975;28;20257;-73
2022/07/31 01:05:33;;;;;;;3.63;3.53;;;;;;;24.40;82.40;99124.09;5054554;28;20200;-72
2022/07/31 01:08:00;;;;;;;4.50;4.30;;;;;;;24.32;82.34;99126.66;5054531;28;20627;-73
2022/07/31 01:10:38;;;;;;;3.97;3.77;;;;;;;24.22;83.13;99133.03;5054779;28;20344;-73
2022/07/31 01:13:10;;;;;;;3.90;3.60;;;;;;;23.99;83.82;99133.91;5054511;28;20264;-72
2022/07/31 01:15:40;;;;;;;4.23;3.97;;;;;;;24.11;82.95;99142.44;5054619;28;20724;-73
2022/07/31 01:18:09;;;;;;;7.90;3.50;;;;;;;23.99;82.05;99133.91;5054558;28;20656;-73
2022/07/31 01:20:37;;;;;;;4.00;3.60;;;;;;;24.01;83.64;99137.13;5054515;28;20192;-74
2022/07/31 01:23:17;;;;;;;3.57;3.27;;;;;;;23.87;83.53;99130.78;5054164;28;20200;-72
2022/07/31 01:25:51;;;;;;;4.53;3.73;;;;;;;23.76;83.87;99134.72;5053496;28;20643;-73
2022/07/31 01:28:28;;;;;;;3.60;3.40;;;;;;;23.76;84.23;99140.13;5053527;28;20192;-74
2022/07/31 01:31:03;;;;;;;4.47;2.87;;;;;;;24.03;83.58;99134.13;5053978;28;20182;-74
2022/07/31 01:33:36;;;;;;;4.20;2.97;;;;;;;24.32;82.50;99138.34;5053452;28;20260;-72
2022/07/31 01:36:09;;;;;;;2.97;2.77;;;;;;;24.91;77.46;99135.78;5053984;28;20191;-70
2022/07/31 01:38:40;;;;;;;5.97;3.37;;;;;;;25.01;78.00;99129.38;5053600;28;20655;-69
2022/07/31 01:41:10;;;;;;;3.07;2.93;;;;;;;25.16;77.26;99131.03;5053805;28;20253;-69
2022/07/31 01:43:40;;;;;;;3.20;2.90;;;;;;;25.52;74.67;99121.13;5054409;28;20252;-68
2022/07/31 01:46:12;;;;;;;3.20;3.00;;;;;;;26.00;72.61;99135.94;5054047;28;20588;-69
2022/07/31 01:48:40;;;;;;;7.80;3.20;;;;;;;26.18;71.41;99135.00;5053857;28;20710;-71
2022/07/31 01:51:09;;;;;;;3.23;2.97;;;;;;;26.28;71.81;99138.31;5053523;28;20197;-72
2022/07/31 01:53:37;;;;;;;4.03;3.83;;;;;;;25.80;73.96;99126.25;5053444;28;20259;-72
2022/07/31 01:56:06;;;;;;;4.90;4.60;;;;;;;25.32;76.63;99118.78;5053146;28;20204;-72
2022/07/31 01:58:36;;;;;;;5.33;4.77;;;;;;;24.52;79.14;99101.91;5054039;28;20269;-72
2022/07/31 02:01:07;;;;;;;5.37;4.87;;;;;;;24.18;81.89;99120.34;5052936;28;20702;-72
2022/07/31 02:03:37;;;;;;;4.80;4.50;;;;;;;23.63;84.88;99121.84;5053688;28;20209;-72
2022/07/31 02:06:04;;;;;;;5.03;4.77;;;;;;;23.40;86.55;99130.78;5053256;28;20199;-72
2022/07/31 02:08:33;;;;;;;5.83;5.30;;;;;;;22.98;88.85;99130.66;5053673;28;20193;-72
2022/07/31 02:11:02;;;;;;;8.23;5.83;;;;;;;22.42;92.65;99126.72;5054084;28;20569;-72
2022/07/31 02:13:29;;;;;;;6.47;5.97;;;;;;;22.40;93.02;99126.22;5053629;28;20591;-73
2022/07/31 02:15:57;;;;;;;5.60;5.17;;;;;;;22.40;93.20;99125.41;5053354;28;20193;-73
2022/07/31 02:18:25;;;;;;;5.67;5.17;;;;;;;22.41;93.50;99127.03;5071999;28;20238;-74
2022/07/31 02:20:55;;;;;;;5.73;5.33;;;;;;;22.28;93.45;99125.75;5072990;28;20250;-73
2022/07/31 02:23:21;;;;;;;7.57;5.10;;;;;;;22.16;94.36;99136.09;5073514;28;20254;-73
2022/07/31 02:25:48;;;;;;;5.47;5.03;;;;;;;21.94;95.70;99133.00;5072725;28;20545;-73
2022/07/31 02:28:19;;;;;;;5.87;5.57;;;;;;;21.89;95.89;99130.28;5072263;28;20663;-73
2022/07/31 02:30:48;;;;;;;5.73;5.33;;;;;;;21.84;96.72;99116.78;5070748;28;20176;-73
2022/07/31 02:33:20;;;;;;;5.50;5.03;;;;;;;21.72;98.27;99124.41;5072605;28;20595;-72
2022/07/31 02:35:49;;;;;;;5.33;4.93;;;;;;;21.70;98.19;99121.19;5073072;28;20283;-74
2022/07/31 02:38:20;;;;;;;5.00;4.57;;;;;;;21.66;98.14;99120.09;5072447;28;20660;-72
2022/07/31 02:40:49;;;;;;;7.53;5.87;;;;;;;21.57;98.66;99126.34;5072707;28;20717;-73
2022/07/31 02:43:16;;;;;;;5.77;5.47;;;;;;;21.56;98.73;99125.53;5072936;28;20203;-72
2022/07/31 02:45:44;;;;;;;5.90;5.30;;;;;;;21.57;98.72;99132.56;5072978;28;20279;-72
2022/07/31 02:48:11;;;;;;;5.87;5.57;;;;;;;21.58;98.58;99119.84;5072491;28;20274;-72
2022/07/31 02:50:38;;;;;;;5.47;5.07;;;;;;;21.46;98.58;99120.16;5072716;28;20196;-73
2022/07/31 02:53:05;;;;;;;6.07;5.70;;;;;;;21.58;97.66;99120.69;5072540;28;20229;-74
2022/07/31 02:55:34;;;;;;;6.20;5.00;;;;;;;21.52;97.60;99129.88;5072241;28;20663;-72
2022/07/31 02:58:01;;;;;;;5.37;5.07;;;;;;;21.45;98.04;99128.56;5072559;28;20224;-72
2022/07/31 03:00:29;;;;;;;7.57;4.90;;;;;;;21.55;97.55;99123.91;5072163;28;20560;-73
2022/07/31 03:02:57;;;;;;;5.63;5.33;;;;;;;21.54;97.24;99133.13;5072062;28;20227;-73
2022/07/31 03:05:24;;;;;;;5.40;4.73;;;;;;;21.48;97.96;99136.91;5071747;28;20705;-74
2022/07/31 03:07:50;;;;;;;5.33;5.00;;;;;;;21.52;96.91;99129.88;5071502;28;20188;-74
2022/07/31 03:10:17;;;;;;;5.33;5.00;;;;;;;21.48;96.93;99133.41;5071840;28;20192;-74
2022/07/31 03:12:48;;;;;;;5.73;5.30;;;;;;;21.52;96.48;99137.97;5071089;28;20191;-74
2022/07/31 03:15:18;;;;;;;5.37;4.90;;;;;;;21.54;96.35;99132.31;5072422;28;20223;-73
2022/07/31 03:17:45;;;;;;;4.77;4.47;;;;;;;21.55;96.38;99140.13;5072151;28;20195;-74
2022/07/31 03:20:14;;;;;;;4.80;4.60;;;;;;;21.67;95.66;99137.94;5071963;28;20655;-74
2022/07/31 03:22:41;;;;;;;4.83;4.50;;;;;;;21.77;94.64;99131.72;5072212;28;20256;-73
2022/07/31 03:25:09;;;;;;;5.33;5.03;;;;;;;21.79;94.34;99134.94;5072279;28;20208;-74
2022/07/31 03:27:36;;;;;;;5.30;4.60;;;;;;;21.85;93.70;99134.63;5072233;28;20196;-73
2022/07/31 03:30:06;;;;;;;5.27;4.77;;;;;;;21.87;93.46;99137.06;5072171;28;20254;-73
2022/07/31 03:32:34;;;;;;;4.20;3.90;;;;;;;22.00;93.11;99134.56;5072027;28;20231;-73
2022/07/31 03:35:01;;;;;;;4.53;4.23;;;;;;;22.06;92.75;99135.34;5071500;28;20257;-74
2022/07/31 03:37:27;;;;;;;5.00;4.67;;;;;;;22.10;92.07;99142.66;5071554;28;20196;-73
2022/07/31 03:39:54;;;;;;;6.53;5.00;;;;;;;22.23;91.48;99142.03;5071193;28;20668;-73
2022/07/31 03:42:22;;;;;;;7.70;5.03;;;;;;;22.26;91.03;99138.75;5071442;28;20196;-72
2022/07/31 03:44:49;;;;;;;5.30;4.90;;;;;;;22.20;91.00;99148.00;5072242;28;20199;-73
2022/07/31 03:47:17;;;;;;;4.77;4.40;;;;;;;22.18;91.09;99144.78;5071657;28;20272;-73
2022/07/31 03:49:45;;;;;;;4.90;4.33;;;;;;;22.12;91.75;99145.88;5070898;28;20192;-75
2022/07/31 03:52:12;;;;;;;5.23;4.83;;;;;;;22.14;91.25;99154.53;5070856;28;20188;-74
2022/07/31 03:54:39;;;;;;;4.67;4.37;;;;;;;22.20;90.79;99148.00;5071473;28;20224;-74
2022/07/31 03:57:07;;;;;;;4.67;4.37;;;;;;;22.20;90.47;99148.00;5071038;28;20231;-74
2022/07/31 03:59:35;;;;;;;4.77;4.50;;;;;;;22.09;91.08;99143.72;5071685;28;20188;-74
2022/07/31 04:02:02;;;;;;;5.33;4.83;;;;;;;22.27;90.10;99148.50;5071992;28;20191;-74
2022/07/31 04:04:30;;;;;;;4.87;4.43;;;;;;;22.54;89.52;99148.88;5071753;28;20195;-73
2022/07/31 04:06:57;;;;;;;5.50;5.10;;;;;;;22.96;87.91;99146.41;5071710;28;20258;-73
2022/07/31 04:09:24;;;;;;;4.80;4.40;;;;;;;23.49;83.98;99150.75;5071255;28;20287;-74
2022/07/31 04:11:50;;;;;;;4.80;4.50;;;;;;;24.06;80.95;99149.84;5071391;28;20680;-73
2022/07/31 04:14:17;;;;;;;4.37;4.07;;;;;;;24.67;77.66;99156.81;5071568;28;20289;-72
2022/07/31 04:16:44;;;;;;;4.50;4.07;;;;;;;25.11;75.06;99155.59;5071427;28;20621;-73
2022/07/31 04:19:10;;;;;;;4.10;3.80;;;;;;;25.66;72.66;99160.81;5070965;28;20206;-73
2022/07/31 04:21:38;;;;;;;5.10;3.87;;;;;;;26.20;71.04;99160.00;5071092;28;20642;-72
2022/07/31 04:24:06;;;;;;;4.40;4.10;;;;;;;26.50;68.26;99162.84;5071736;28;20195;-72
2022/07/31 04:26:33;;;;;;;3.97;3.70;;;;;;;27.01;67.18;99162.47;5074925;28;20659;-73
2022/07/31 04:29:00;;;;;;;3.93;3.67;;;;;;;27.47;65.33;99161.00;5074240;28;20680;-76
2022/07/31 04:31:26;;;;;;;5.03;3.87;;;;;;;27.92;63.66;99156.22;5074763;28;20191;-74
2022/07/31 04:33:53;;;;;;;4.03;3.70;;;;;;;28.28;62.19;99154.03;5074641;28;20219;-74
2022/07/31 04:36:20;;;;;;;3.73;3.60;;;;;;;28.60;60.62;99159.91;5074663;28;20192;-72
2022/07/31 04:38:48;;;;;;;5.23;3.50;;;;;;;28.84;59.47;99162.13;5073740;28;20809;-72
2022/07/31 04:41:16;;;;;;;5.00;4.50;;;;;;;29.06;58.39;99159.22;5074358;28;20241;-72
2022/07/31 04:43:43;;;;;;;7.53;3.90;;;;;;;29.29;57.33;99169.63;5074287;28;20200;-73
2022/07/31 04:46:10;;;;;;;4.47;4.17;;;;;;;29.39;56.22;99173.19;5074248;28;20191;-72
2022/07/31 04:48:37;;;;;;;4.20;4.00;;;;;;;29.66;55.85;99168.13;5074130;28;20245;-72
2022/07/31 04:51:04;;;;;;;4.50;4.20;;;;;;;29.91;55.15;99171.84;5074343;28;20195;-71
2022/07/31 04:53:31;;;;;;;4.60;4.20;;;;;;;30.29;53.54;99175.38;5073956;28;20672;-73
2022/07/31 04:58:43;;;;;;;3.67;3.47;;;;;;;30.88;52.69;99177.69;5074023;28;20706;-71
2022/07/31 05:01:10;;;;;;;6.23;4.47;;;;;;;31.14;51.50;99186.47;5073560;28;20245;-73
2022/07/31 05:03:37;;;;;;;4.57;4.23;;;;;;;31.41;50.17;99191.41;5073512;28;20249;-72
2022/07/31 05:06:10;;;;;;;4.00;3.80;;;;;;;31.58;50.01;99193.94;5073811;28;20196;-72
2022/07/31 05:08:37;;;;;;;4.60;3.80;;;;;;;31.62;48.71;99192.13;5073548;28;20180;-73
2022/07/31 05:11:24;;;;;;;4.37;4.07;;;;;;;31.71;48.25;99203.81;5073782;28;20196;-71
2022/07/31 05:13:51;;;;;;;4.67;3.80;;;;;;;32.15;47.17;99200.19;5073558;28;20333;-71
2022/07/31 05:16:19;;;;;;;3.50;3.30;;;;;;;32.09;46.42;99198.03;5073825;28;20191;-72
2022/07/31 05:18:46;;;;;;;4.43;3.60;;;;;;;31.71;47.08;99198.31;5073830;28;20199;-71
2022/07/31 05:21:13;;;;;;;3.70;3.43;;;;;;;31.53;47.52;99193.34;5074344;28;20196;-71
2022/07/31 05:23:41;;;;;;;5.43;3.27;;;;;;;31.66;47.69;99192.22;5074453;28;20196;-72
2022/07/31 05:26:10;;;;;;;3.50;3.27;;;;;;;31.59;47.38;99181.81;5074224;28;20203;-71
2022/07/31 05:28:37;;;;;;;3.50;3.37;;;;;;;31.75;46.76;99185.50;5073823;28;20192;-70
2022/07/31 05:31:04;;;;;;;3.70;3.50;;;;;;;31.74;47.05;99183.91;5073419;28;20741;-70
2022/07/31 05:33:31;;;;;;;4.00;3.20;;;;;;;31.70;46.75;99185.72;5073336;28;20337;-71
2022/07/31 05:35:58;;;;;;;3.30;3.00;;;;;;;31.96;46.08;99183.47;5072772;28;20196;-71
2022/07/31 05:38:25;;;;;;;4.83;3.23;;;;;;;32.50;44.59;99184.81;5073882;28;20188;-71
2022/07/31 05:40:52;;;;;;;2.87;2.67;;;;;;;32.61;44.41;99193.38;5073569;28;20279;-70
2022/07/31 05:43:20;;;;;;;2.83;2.43;;;;;;;32.34;44.40;99181.16;5074003;28;20257;-70
2022/07/31 05:45:47;;;;;;;3.13;2.60;;;;;;;32.74;43.85;99184.75;5073711;28;20195;-72
2022/07/31 05:48:13;;;;;;;2.50;2.40;;;;;;;32.85;42.75;99185.91;5073234;28;20204;-71
2022/07/31 05:50:42;;;;;;;2.70;2.50;;;;;;;32.99;41.46;99186.28;5073438;28;20797;-70
2022/07/31 05:53:10;;;;;;;2.30;2.20;;;;;;;33.38;41.43;99178.31;5072619;28;20726;-69
2022/07/31 05:55:38;;;;;;;2.60;2.50;;;;;;;33.88;40.42;99183.97;5072792;28;20224;-68
2022/07/31 05:58:04;;;;;;;3.13;2.93;;;;;;;33.84;40.34;99177.59;5072757;28;20259;-69
2022/07/31 06:00:33;;;;;;;3.50;2.40;;;;;;;34.05;39.75;99178.09;5072662;28;20199;-70
2022/07/31 06:03:00;;;;;;;2.80;2.70;;;;;;;33.97;39.70;99170.81;5067897;28;20704;-68
2022/07/31 06:05:26;;;;;;;3.03;2.93;;;;;;;33.91;38.87;99177.72;5071542;28;20196;-69
2022/07/31 06:07:53;;;;;;;2.37;2.27;;;;;;;33.50;39.65;99172.72;5072189;28;20249;-69
2022/07/31 06:10:20;;;;;;;2.40;2.30;;;;;;;33.48;40.02;99169.53;5072434;28;20192;-68
2022/07/31 06:12:47;;;;;;;2.57;2.47;;;;;;;33.31;40.09;99170.63;5073123;28;20192;-68
2022/07/31 06:15:14;;;;;;;2.70;2.53;;;;;;;33.55;40.04;99169.72;5073207;28;20219;-67
2022/07/31 06:17:43;;;;;;;2.47;2.27;;;;;;;33.28;39.17;99166.63;5072431;28;20242;-70
2022/07/31 06:20:11;;;;;;;3.10;2.90;;;;;;;32.70;40.04;99161.81;5072739;28;20692;-70
2022/07/31 06:22:39;;;;;;;2.93;2.70;;;;;;;32.72;40.20;99161.47;5071683;28;20234;-71
2022/07/31 06:25:08;;;;;;;3.07;2.97;;;;;;;32.72;40.61;99162.28;5071934;28;20286;-71
2022/07/31 06:27:35;;;;;;;3.80;2.57;;;;;;;32.60;41.52;99156.81;5071966;28;20188;-72
2022/07/31 06:30:02;;;;;;;2.83;2.63;;;;;;;32.61;41.39;99163.94;5070683;28;20275;-73
2022/07/31 06:32:29;;;;;;;2.90;2.80;;;;;;;32.68;41.31;99158.63;5071667;28;20257;-73
2022/07/31 06:34:58;;;;;;;3.10;2.93;;;;;;;32.79;40.75;99161.69;5072268;28;20298;-71
2022/07/31 06:37:25;;;;;;;5.70;3.50;;;;;;;32.93;40.59;99162.94;5070704;28;20265;-70
2022/07/31 06:39:52;;;;;;;3.27;2.97;;;;;;;32.75;40.17;99158.81;5072107;28;20649;-70
2022/07/31 06:42:20;;;;;;;3.33;2.90;;;;;;;32.83;40.14;99155.16;5071751;28;20196;-72
2022/07/31 06:44:46;;;;;;;3.80;2.80;;;;;;;32.99;40.06;99158.75;5072390;28;20203;-66
2022/07/31 06:47:13;;;;;;;3.00;2.90;;;;;;;32.93;39.69;99165.69;5071785;28;20188;-73
2022/07/31 06:49:40;;;;;;;3.60;3.40;;;;;;;33.00;39.82;99163.09;5071776;28;20257;-74
2022/07/31 06:52:09;;;;;;;3.10;2.97;;;;;;;33.13;39.44;99164.66;5071126;28;20200;-72
2022/07/31 06:54:35;;;;;;;3.50;3.30;;;;;;;33.30;39.49;99169.84;5071389;28;20703;-72
2022/07/31 06:57:02;;;;;;;3.43;3.13;;;;;;;32.92;40.33;99164.06;5071358;28;20231;-70
2022/07/31 06:59:29;;;;;;;3.97;3.20;;;;;;;32.97;40.14;99171.28;5071347;28;20200;-71
2022/07/31 07:01:56;;;;;;;3.80;3.57;;;;;;;33.16;39.91;99161.19;5071744;28;20333;-71
2022/07/31 07:04:23;;;;;;;3.50;3.30;;;;;;;32.67;41.21;99156.22;5071052;28;20282;-70
2022/07/31 07:06:49;;;;;;;4.47;3.87;;;;;;;32.59;41.29;99160.72;5071227;28;20610;-71
2022/07/31 07:09:17;;;;;;;4.20;4.00;;;;;;;32.80;41.39;99155.88;5071110;28;20242;-70
2022/07/31 07:11:46;;;;;;;4.67;4.30;;;;;;;33.01;41.04;99155.66;5071455;28;20237;-72
2022/07/31 07:14:12;;;;;;;6.10;4.03;;;;;;;32.98;40.93;99162.66;5071310;28;20631;-70
2022/07/31 07:16:39;;;;;;;4.50;4.10;;;;;;;33.19;40.54;99152.22;5063694;28;20204;-71
2022/07/31 07:19:06;;;;;;;5.60;5.03;;;;;;;33.40;40.40;99156.72;5056887;28;20189;-68
2022/07/31 07:21:32;;;;;;;5.73;4.90;;;;;;;33.26;40.33;99160.69;5067919;28;20196;-69
2022/07/31 07:23:59;;;;;;;12.33;5.20;;;;;;;33.25;40.83;99156.34;5068788;28;20741;-70
2022/07/31 07:26:27;;;;;;;5.87;4.60;;;;;;;32.97;41.41;99152.81;5051495;28;20258;-70
2022/07/31 07:28:54;;;;;;;5.10;4.80;;;;;;;32.40;42.93;99157.78;5050624;28;20664;-72
2022/07/31 07:31:21;;;;;;;5.60;5.07;;;;;;;32.44;43.23;99131.19;5051087;28;20208;-72
2022/07/31 07:33:50;;;;;;;5.80;5.30;;;;;;;32.40;43.51;99155.03;5050811;28;20202;-72
2022/07/31 07:36:17;;;;;;;5.70;5.40;;;;;;;32.47;43.94;99149.75;5051644;28;20587;-72
2022/07/31 07:38:43;;;;;;;5.73;5.23;;;;;;;32.07;44.02;99148.88;5050801;28;20267;-72
2022/07/31 07:41:10;;;;;;;6.13;5.53;;;;;;;32.23;44.90;99147.03;5050653;28;20258;-73
2022/07/31 07:43:38;;;;;;;5.20;5.00;;;;;;;32.12;44.53;99147.84;5050331;28;20275;-74
2022/07/31 07:46:05;;;;;;;5.63;5.10;;;;;;;32.58;43.00;99152.81;5053849;28;20685;-72
2022/07/31 07:48:32;;;;;;;5.97;5.50;;;;;;;32.73;42.96;99149.31;5058082;28;20208;-72
2022/07/31 07:50:58;;;;;;;5.87;5.47;;;;;;;32.81;43.55;99151.97;5051972;28;20192;-72
2022/07/31 07:53:25;;;;;;;5.90;5.60;;;;;;;32.75;42.68;99150.56;5050648;28;20192;-70
2022/07/31 07:55:52;;;;;;;10.30;5.83;;;;;;;32.33;44.91;99143.81;5070312;28;20220;-73
2022/07/31 07:58:19;;;;;;;5.77;5.47;;;;;;;32.49;43.26;99144.69;5070779;28;20228;-74
2022/07/31 08:00:47;;;;;;;6.33;5.27;;;;;;;32.47;43.84;99144.22;5069172;28;20630;-72
2022/07/31 08:03:15;;;;;;;6.17;5.63;;;;;;;32.83;42.16;99138.63;5059249;28;20753;-71
2022/07/31 08:05:42;;;;;;;6.50;6.03;;;;;;;32.61;42.30;99135.59;5050411;28;20759;-71
2022/07/31 08:08:09;;;;;;;6.00;5.50;;;;;;;32.48;42.90;99126.59;5054678;28;20254;-72
2022/07/31 08:10:38;;;;;;;6.33;5.83;;;;;;;32.78;42.79;99125.09;5064295;28;20261;-72
2022/07/31 08:13:04;;;;;;;5.97;5.67;;;;;;;32.83;42.34;99132.34;5069451;28;20188;-72
2022/07/31 08:15:31;;;;;;;6.13;5.63;;;;;;;32.93;42.96;99129.91;5068540;28;20223;-72
2022/07/31 08:17:59;;;;;;;8.50;5.90;;;;;;;33.11;42.56;99133.91;5049975;28;20196;-72
2022/07/31 08:20:26;;;;;;;6.73;5.67;;;;;;;33.38;41.58;99131.47;5061844;28;20192;-70
2022/07/31 08:22:53;;;;;;;5.70;5.30;;;;;;;33.40;41.82;99129.19;5070383;28;20195;-74
2022/07/31 08:25:20;;;;;;;6.43;5.83;;;;;;;33.38;41.93;99134.25;5066633;28;20203;-70
2022/07/31 08:27:49;;;;;;;6.77;6.23;;;;;;;33.55;40.61;99131.94;5070183;28;20195;-69
2022/07/31 08:30:16;;;;;;;5.65;5.45;;;;;;;33.35;41.35;99121.97;5070491;28;20214;-70
2022/07/31 08:32:42;;;;;;;6.38;5.88;;;;;;;33.03;41.58;99123.09;5070591;28;20655;-70
2022/07/31 08:35:11;;;;;;;6.30;6.00;;;;;;;32.96;42.13;99120.91;5063590;28;20231;-69
2022/07/31 08:37:37;;;;;;;6.93;6.50;;;;;;;32.96;42.77;99120.91;5070374;28;20253;-70
2022/07/31 08:40:05;;;;;;;9.73;6.23;;;;;;;32.88;43.15;99124.66;5071286;28;20188;-68
2022/07/31 08:42:32;;;;;;;6.30;6.00;;;;;;;32.73;42.99;99122.63;5072148;28;20226;-69
2022/07/31 08:44:59;;;;;;;5.87;5.57;;;;;;;32.88;42.08;99126.59;5071578;28;20196;-69
2022/07/31 08:47:27;;;;;;;6.90;6.30;;;;;;;32.77;42.41;99117.19;5071356;28;20195;-71
2022/07/31 08:49:56;;;;;;;6.50;6.10;;;;;;;33.06;42.01;99114.91;5070921;28;20200;-68
2022/07/31 08:52:25;;;;;;;7.10;6.60;;;;;;;32.90;42.68;99116.00;5071193;28;20237;-70
2022/07/31 08:54:53;;;;;;;6.93;6.63;;;;;;;32.88;42.33;99119.16;5070653;28;20741;-69
2022/07/31 08:57:20;;;;;;;7.43;6.97;;;;;;;33.03;42.47;99107.34;5070930;28;20258;-68
2022/07/31 08:59:51;;;;;;;8.33;7.67;;;;;;;32.98;43.44;99113.13;5071209;28;20202;-68
2022/07/31 09:02:18;;;;;;;8.10;7.60;;;;;;;33.23;43.06;99102.75;5070746;28;20229;-69
2022/07/31 09:04:45;;;;;;;8.07;7.50;;;;;;;33.70;42.38;99106.34;5069797;28;20195;-68
2022/07/31 09:07:14;;;;;;;6.50;6.13;;;;;;;33.85;41.61;99102.81;5071112;28;20195;-68
2022/07/31 09:09:47;;;;;;;6.82;6.53;;;;;;;33.89;39.51;99111.16;5071181;28;20192;-68
2022/07/31 09:12:14;;;;;;;7.45;6.75;;;;;;;34.16;40.40;99113.75;5073090;28;20191;-68
2022/07/31 09:14:48;;;;;;;7.93;7.32;;;;;;;33.81;40.52;99112.09;5074110;28;20188;-69
2022/07/31 09:17:15;;;;;;;8.07;7.60;;;;;;;33.93;41.08;99106.53;5074381;28;20274;-69
2022/07/31 09:19:43;;;;;;;7.93;7.43;;;;;;;33.79;41.18;99103.38;5074610;28;20249;-68
2022/07/31 09:22:19;;;;;;;7.97;7.32;;;;;;;34.04;40.07;99100.06;5074412;28;20188;-70
2022/07/31 09:24:47;;;;;;;7.68;7.18;;;;;;;33.87;39.54;99096.91;5063482;28;20231;-69
2022/07/31 09:27:16;;;;;;;8.00;7.60;;;;;;;33.96;39.24;99097.53;5054392;28;20250;-69
2022/07/31 09:29:45;;;;;;;7.68;7.03;;;;;;;34.10;39.48;99086.81;5054168;28;20200;-70
2022/07/31 09:32:14;;;;;;;9.02;8.25;;;;;;;34.05;39.54;99092.63;5054440;28;20197;-65
2022/07/31 09:34:41;;;;;;;8.90;6.82;;;;;;;33.98;39.17;99089.69;5054073;28;20196;-65
2022/07/31 09:37:09;;;;;;;7.60;7.00;;;;;;;33.55;39.66;99076.06;5053887;28;20707;-65
2022/07/31 09:39:36;;;;;;;8.20;7.50;;;;;;;33.65;40.20;99084.56;5053667;28;20197;-65
2022/07/31 09:42:06;;;;;;;6.40;5.85;;;;;;;33.92;38.93;99069.88;5054767;28;20209;-65
2022/07/31 09:44:38;;;;;;;6.82;6.32;;;;;;;34.34;38.09;99072.78;5053888;28;20618;-66
2022/07/31 09:47:07;;;;;;;7.30;6.70;;;;;;;34.27;37.50;99070.66;5053800;28;20216;-66
2022/07/31 09:49:35;;;;;;;6.93;6.35;;;;;;;34.48;37.12;99073.88;5054585;28;20197;-66
2022/07/31 09:52:02;;;;;;;6.43;6.13;;;;;;;34.18;37.55;99069.25;5053939;28;20192;-65
2022/07/31 09:54:31;;;;;;;6.32;6.03;;;;;;;34.24;37.26;99062.28;5064053;28;20257;-66
2022/07/31 09:56:58;;;;;;;6.38;5.85;;;;;;;34.32;37.46;99061.31;5073058;28;20608;-65
2022/07/31 09:59:26;;;;;;;6.28;5.97;;;;;;;34.54;36.28;99063.34;5073740;28;20196;-65
2022/07/31 10:01:53;;;;;;;6.50;6.00;;;;;;;34.34;36.61;99056.25;5074132;28;20200;-67
2022/07/31 10:04:22;;;;;;;5.55;5.25;;;;;;;34.36;35.93;99062.19;5055084;28;20192;-65
2022/07/31 10:06:51;;;;;;;5.10;4.80;;;;;;;34.37;34.95;99058.28;5069661;28;20279;-65
2022/07/31 10:09:20;;;;;;;5.10;4.70;;;;;;;34.43;34.80;99054.06;5074397;28;20249;-64
2022/07/31 10:11:49;;;;;;;4.95;4.75;;;;;;;34.43;34.34;99048.53;5073682;28;20195;-67
2022/07/31 10:14:22;;;;;;;4.88;4.63;;;;;;;34.57;34.75;99046.09;5072918;28;20198;-68
2022/07/31 10:16:54;;;;;;;6.68;4.72;;;;;;;34.78;34.63;99035.44;5070732;28;20208;-68
2022/07/31 10:19:22;;;;;;;4.55;4.15;;;;;;;34.85;33.01;99035.59;5073052;28;20184;-67
2022/07/31 10:21:56;;;;;;;4.25;3.95;;;;;;;34.79;33.14;99037.03;5073040;28;20196;-67
2022/07/31 10:24:27;;;;;;;3.75;3.65;;;;;;;34.75;33.09;99042.50;5073943;28;20244;-67
2022/07/31 10:26:56;;;;;;;4.07;3.78;;;;;;;34.54;33.33;99041.28;5073496;28;20279;-67
2022/07/31 10:29:23;;;;;;;6.00;3.95;;;;;;;34.58;33.15;99034.66;5073550;28;20192;-67
2022/07/31 10:31:52;;;;;;;3.85;3.55;;;;;;;34.66;33.29;99027.31;5072377;28;20667;-67
2022/07/31 10:34:19;;;;;;;3.88;3.60;;;;;;;34.89;32.11;99025.41;5073495;28;20192;-68
2022/07/31 10:36:49;;;;;;;3.45;3.35;;;;;;;35.09;31.95;99024.19;5073377;28;20265;-67
2022/07/31 10:39:23;;;;;;;3.50;3.20;;;;;;;35.01;32.25;99019.69;5073460;28;20191;-67
2022/07/31 10:41:58;;;;;;;4.00;3.70;;;;;;;35.10;32.25;99014.72;5073069;28;20558;-67
2022/07/31 10:44:31;;;;;;;3.55;3.35;;;;;;;34.80;31.64;99016.56;5073531;28;20351;-68
2022/07/31 10:46:59;;;;;;;3.28;3.10;;;;;;;34.76;31.49;99021.19;5072373;28;20250;-68
2022/07/31 10:49:40;;;;;;;3.28;3.08;;;;;;;34.71;31.34;99019.56;5073211;28;20241;-68
2022/07/31 10:52:07;;;;;;;3.15;2.95;;;;;;;34.96;31.78;99011.72;5073076;28;20607;-68
2022/07/31 10:54:41;;;;;;;3.20;3.08;;;;;;;34.97;31.06;99010.56;5073184;28;20196;-68
2022/07/31 10:57:09;;;;;;;3.92;2.78;;;;;;;34.61;32.09;99006.34;5072558;28;20649;-68
2022/07/31 10:59:36;;;;;;;3.30;3.15;;;;;;;34.70;32.45;99006.09;5073277;28;20610;-68
2022/07/31 11:02:04;;;;;;;3.15;3.05;;;;;;;34.67;32.24;99006.84;5073261;28;20193;-68
2022/07/31 11:04:32;;;;;;;2.95;2.85;;;;;;;34.73;31.84;98999.84;5072690;28;20206;-67
2022/07/31 11:06:59;;;;;;;2.72;2.63;;;;;;;34.87;31.72;98997.38;5073254;28;20196;-66
2022/07/31 11:09:28;;;;;;;3.35;3.25;;;;;;;34.67;32.51;98996.59;5072539;28;20191;-67
2022/07/31 11:11:56;;;;;;;3.13;2.95;;;;;;;34.77;32.37;99003.47;5072630;28;20199;-68
2022/07/31 11:14:33;;;;;;;3.30;3.10;;;;;;;34.78;31.32;99002.31;5073009;28;20282;-65
2022/07/31 11:17:00;;;;;;;2.80;2.60;;;;;;;35.03;30.54;98998.06;5072621;28;20215;-67
2022/07/31 11:19:38;;;;;;;2.50;2.40;;;;;;;35.15;30.94;98995.09;5072695;28;20210;-66
2022/07/31 11:22:12;;;;;;;2.92;2.72;;;;;;;34.97;30.83;98977.41;5071929;28;20708;-68
2022/07/31 11:24:39;;;;;;;2.92;2.83;;;;;;;34.79;31.39;98984.59;5070471;28;20184;-67
2022/07/31 11:27:06;;;;;;;2.72;2.63;;;;;;;34.12;30.84;98982.47;5071666;28;20250;-67
2022/07/31 11:29:34;;;;;;;2.78;2.67;;;;;;;34.18;30.46;98992.06;5069685;28;20184;-67
2022/07/31 11:32:13;;;;;;;2.28;2.17;;;;;;;34.34;30.97;98992.81;5071980;28;20237;-67
2022/07/31 11:34:47;;;;;;;2.58;2.38;;;;;;;34.43;30.92;98979.56;5069864;28;20263;-67
2022/07/31 11:37:18;;;;;;;5.07;2.75;;;;;;;34.62;31.19;98982.31;5069236;28;20253;-67
2022/07/31 11:39:44;;;;;;;2.88;2.78;;;;;;;34.57;30.61;98983.41;5072076;28;20210;-66
2022/07/31 11:42:11;;;;;;;4.03;3.13;;;;;;;34.59;32.10;98978.31;5068938;28;20188;-66